sensor_id;sensor_type;location;lat;lon;timestamp;P1;durP1;ratioP1;P2;durP2;ratioP2
5157;SDS011;2598;52.364;9.772;2022-12-29T07:58:45;4.20;;;0.90;;
5157;SDS011;2598;52.364;9.772;2022-12-29T08:01:11;4.67;;;0.90;;
5157;SDS011;2598;52.364;9.772;2022-12-29T08:03:37;3.77;;;0.90;;
5157;SDS011;2598;52.364;9.772;2022-12-29T08:06:06;4.23;;;1.00;;
5157;SDS011;2598;52.364;9.772;2022-12-29T08:08:34;3.70;;;0.97;;
5157;SDS011;2598;52.364;9.772;2022-12-29T08:11:00;3.87;;;1.30;;
5157;SDS011;2598;52.364;9.772;2022-12-29T08:13:26;3.60;;;0.90;;
5157;SDS011;2598;52.364;9.772;2022-12-29T08:15:52;3.80;;;1.13;;
5157;SDS011;2598;52.364;9.772;2022-12-29T08:18:18;5.83;;;1.03;;
5157;SDS011;2598;52.364;9.772;2022-12-29T08:20:44;8.13;;;1.40;;
5157;SDS011;2598;52.364;9.772;2022-12-29T08:23:10;4.67;;;1.50;;
5157;SDS011;2598;52.364;9.772;2022-12-29T08:25:36;5.50;;;1.20;;
5157;SDS011;2598;52.364;9.772;2022-12-29T08:28:01;6.87;;;1.90;;
5157;SDS011;2598;52.364;9.772;2022-12-29T08:30:27;6.30;;;1.90;;
5157;SDS011;2598;52.364;9.772;2022-12-29T08:32:53;5.03;;;1.20;;
5157;SDS011;2598;52.364;9.772;2022-12-29T08:35:19;6.23;;;1.40;;
5157;SDS011;2598;52.364;9.772;2022-12-29T08:37:45;7.50;;;1.07;;
5157;SDS011;2598;52.364;9.772;2022-12-29T08:40:11;4.20;;;1.00;;
5157;SDS011;2598;52.364;9.772;2022-12-29T08:42:38;5.87;;;1.47;;
5157;SDS011;2598;52.364;9.772;2022-12-29T08:45:04;5.00;;;1.20;;
5157;SDS011;2598;52.364;9.772;2022-12-29T08:47:30;4.40;;;1.00;;
5157;SDS011;2598;52.364;9.772;2022-12-29T08:49:56;3.87;;;1.00;;
5157;SDS011;2598;52.364;9.772;2022-12-29T08:52:22;4.53;;;1.00;;
5157;SDS011;2598;52.364;9.772;2022-12-29T08:54:48;3.90;;;1.10;;
5157;SDS011;2598;52.364;9.772;2022-12-29T08:57:14;4.47;;;1.00;;
5157;SDS011;2598;52.364;9.772;2022-12-29T08:59:40;4.57;;;1.03;;
5157;SDS011;2598;52.364;9.772;2022-12-29T09:02:08;4.40;;;1.03;;
5157;SDS011;2598;52.364;9.772;2022-12-29T09:04:35;3.90;;;0.97;;
5157;SDS011;2598;52.364;9.772;2022-12-29T09:07:01;4.03;;;1.10;;
5157;SDS011;2598;52.364;9.772;2022-12-29T09:09:27;4.67;;;1.10;;
5157;SDS011;2598;52.364;9.772;2022-12-29T09:11:53;6.63;;;0.87;;
5157;SDS011;2598;52.364;9.772;2022-12-29T09:14:19;4.53;;;1.00;;
5157;SDS011;2598;52.364;9.772;2022-12-29T09:16:46;4.40;;;1.03;;
5157;SDS011;2598;52.364;9.772;2022-12-29T09:19:31;4.13;;;1.07;;
5157;SDS011;2598;52.364;9.772;2022-12-29T09:21:57;5.00;;;1.23;;
5157;SDS011;2598;52.364;9.772;2022-12-29T09:24:23;6.93;;;1.33;;
5157;SDS011;2598;52.364;9.772;2022-12-29T09:26:49;6.27;;;1.30;;
5157;SDS011;2598;52.364;9.772;2022-12-29T09:29:15;7.60;;;1.30;;
5157;SDS011;2598;52.364;9.772;2022-12-29T09:31:41;11.43;;;1.57;;
5157;SDS011;2598;52.364;9.772;2022-12-29T09:34:07;4.30;;;1.00;;
5157;SDS011;2598;52.364;9.772;2022-12-29T09:36:32;4.20;;;1.00;;
5157;SDS011;2598;52.364;9.772;2022-12-29T09:38:58;4.40;;;1.10;;
5157;SDS011;2598;52.364;9.772;2022-12-29T09:41:34;4.90;;;1.07;;
5157;SDS011;2598;52.364;9.772;2022-12-29T09:44:13;4.20;;;0.90;;
5157;SDS011;2598;52.364;9.772;2022-12-29T09:46:43;5.50;;;1.00;;
5157;SDS011;2598;52.364;9.772;2022-12-29T09:49:24;4.80;;;1.03;;
5157;SDS011;2598;52.364;9.772;2022-12-29T09:51:52;5.60;;;1.03;;
5157;SDS011;2598;52.364;9.772;2022-12-29T09:57:03;6.00;;;1.00;;
5157;SDS011;2598;52.364;9.772;2022-12-29T09:59:40;6.40;;;1.30;;
5157;SDS011;2598;52.364;9.772;2022-12-29T10:02:30;5.93;;;1.20;;
5157;SDS011;2598;52.364;9.772;2022-12-29T10:04:57;6.60;;;0.93;;
5157;SDS011;2598;52.364;9.772;2022-12-29T10:07:26;5.60;;;1.30;;
5157;SDS011;2598;52.364;9.772;2022-12-29T10:17:34;3.90;;;1.07;;
5157;SDS011;2598;52.364;9.772;2022-12-29T10:25:22;4.30;;;1.10;;
5157;SDS011;2598;52.364;9.772;2022-12-29T10:27:49;5.83;;;1.07;;
5157;SDS011;2598;52.364;9.772;2022-12-29T10:30:15;4.63;;;1.20;;
5157;SDS011;2598;52.364;9.772;2022-12-29T10:32:55;4.00;;;1.13;;
5157;SDS011;2598;52.364;9.772;2022-12-29T10:35:23;6.10;;;1.20;;
5157;SDS011;2598;52.364;9.772;2022-12-29T10:37:58;4.90;;;1.13;;
5157;SDS011;2598;52.364;9.772;2022-12-29T10:40:27;3.90;;;1.03;;
5157;SDS011;2598;52.364;9.772;2022-12-29T10:42:54;5.10;;;1.40;;
5157;SDS011;2598;52.364;9.772;2022-12-29T10:45:21;13.10;;;1.90;;
5157;SDS011;2598;52.364;9.772;2022-12-29T10:47:52;5.17;;;1.50;;
5157;SDS011;2598;52.364;9.772;2022-12-29T10:50:19;4.33;;;1.17;;
5157;SDS011;2598;52.364;9.772;2022-12-29T10:52:45;4.43;;;1.20;;
5157;SDS011;2598;52.364;9.772;2022-12-29T10:55:13;7.90;;;1.20;;
5157;SDS011;2598;52.364;9.772;2022-12-29T10:57:41;5.50;;;1.20;;
5157;SDS011;2598;52.364;9.772;2022-12-29T11:00:16;5.00;;;1.57;;
5157;SDS011;2598;52.364;9.772;2022-12-29T11:03:00;7.80;;;1.53;;
5157;SDS011;2598;52.364;9.772;2022-12-29T11:08:13;5.83;;;1.23;;
5157;SDS011;2598;52.364;9.772;2022-12-29T11:10:41;6.67;;;1.47;;
5157;SDS011;2598;52.364;9.772;2022-12-29T11:13:12;4.87;;;1.23;;
5157;SDS011;2598;52.364;9.772;2022-12-29T11:15:40;9.40;;;1.30;;
5157;SDS011;2598;52.364;9.772;2022-12-29T11:18:16;4.93;;;1.37;;
5157;SDS011;2598;52.364;9.772;2022-12-29T11:20:43;7.10;;;1.57;;
5157;SDS011;2598;52.364;9.772;2022-12-29T11:23:26;8.18;;;1.50;;
5157;SDS011;2598;52.364;9.772;2022-12-29T11:32:10;7.35;;;1.45;;
5157;SDS011;2598;52.364;9.772;2022-12-29T11:34:27;7.70;;;2.70;;
5157;SDS011;2598;52.364;9.772;2022-12-29T11:37:06;4.90;;;1.30;;
5157;SDS011;2598;52.364;9.772;2022-12-29T11:39:50;6.37;;;1.30;;
5157;SDS011;2598;52.364;9.772;2022-12-29T11:42:18;7.33;;;1.27;;
5157;SDS011;2598;52.364;9.772;2022-12-29T11:44:46;6.00;;;1.20;;
5157;SDS011;2598;52.364;9.772;2022-12-29T11:47:23;7.83;;;1.30;;
5157;SDS011;2598;52.364;9.772;2022-12-29T11:49:51;5.57;;;1.50;;
5157;SDS011;2598;52.364;9.772;2022-12-29T11:52:21;5.73;;;1.27;;
5157;SDS011;2598;52.364;9.772;2022-12-29T11:54:47;4.80;;;1.20;;
5157;SDS011;2598;52.364;9.772;2022-12-29T11:57:14;5.80;;;1.20;;
5157;SDS011;2598;52.364;9.772;2022-12-29T11:59:48;7.20;;;1.33;;
5157;SDS011;2598;52.364;9.772;2022-12-29T12:02:32;6.30;;;1.40;;
5157;SDS011;2598;52.364;9.772;2022-12-29T12:05:09;6.50;;;1.20;;
5157;SDS011;2598;52.364;9.772;2022-12-29T12:07:37;3.90;;;0.90;;
5157;SDS011;2598;52.364;9.772;2022-12-29T12:10:05;8.43;;;1.13;;
5157;SDS011;2598;52.364;9.772;2022-12-29T12:12:35;6.90;;;1.20;;
5157;SDS011;2598;52.364;9.772;2022-12-29T12:15:02;7.90;;;1.23;;
5157;SDS011;2598;52.364;9.772;2022-12-29T12:25:56;6.30;;;1.40;;
5157;SDS011;2598;52.364;9.772;2022-12-29T12:28:28;6.00;;;1.20;;
5157;SDS011;2598;52.364;9.772;2022-12-29T12:30:56;7.67;;;1.60;;
5157;SDS011;2598;52.364;9.772;2022-12-29T12:33:31;7.90;;;1.37;;
5157;SDS011;2598;52.364;9.772;2022-12-29T12:38:59;6.40;;;1.60;;
5157;SDS011;2598;52.364;9.772;2022-12-29T12:44:00;5.80;;;1.10;;
5157;SDS011;2598;52.364;9.772;2022-12-29T12:54:02;6.10;;;1.13;;
5157;SDS011;2598;52.364;9.772;2022-12-29T12:56:43;5.93;;;1.17;;
5157;SDS011;2598;52.364;9.772;2022-12-29T13:04:32;6.67;;;1.33;;
5157;SDS011;2598;52.364;9.772;2022-12-29T13:07:04;7.77;;;1.20;;
5157;SDS011;2598;52.364;9.772;2022-12-29T13:09:47;6.73;;;1.33;;
5157;SDS011;2598;52.364;9.772;2022-12-29T13:17:33;6.23;;;1.30;;
5157;SDS011;2598;52.364;9.772;2022-12-29T13:20:18;6.07;;;1.13;;
5157;SDS011;2598;52.364;9.772;2022-12-29T13:25:19;5.90;;;1.83;;
5157;SDS011;2598;52.364;9.772;2022-12-29T13:27:50;8.90;;;1.60;;
5157;SDS011;2598;52.364;9.772;2022-12-29T13:30:30;6.23;;;1.60;;
5157;SDS011;2598;52.364;9.772;2022-12-29T13:38:20;7.07;;;1.63;;
5157;SDS011;2598;52.364;9.772;2022-12-29T13:40:55;6.93;;;1.57;;
5157;SDS011;2598;52.364;9.772;2022-12-29T13:43:22;5.57;;;1.30;;
5157;SDS011;2598;52.364;9.772;2022-12-29T13:45:50;8.93;;;1.40;;
5157;SDS011;2598;52.364;9.772;2022-12-29T13:48:22;10.37;;;1.57;;
5157;SDS011;2598;52.364;9.772;2022-12-29T13:50:54;6.23;;;1.20;;
5157;SDS011;2598;52.364;9.772;2022-12-29T13:53:24;4.60;;;1.20;;
5157;SDS011;2598;52.364;9.772;2022-12-29T13:55:54;9.97;;;1.93;;
5157;SDS011;2598;52.364;9.772;2022-12-29T13:58:31;5.30;;;1.00;;
5157;SDS011;2598;52.364;9.772;2022-12-29T14:01:03;9.83;;;1.50;;
5157;SDS011;2598;52.364;9.772;2022-12-29T14:03:43;4.30;;;1.10;;
5157;SDS011;2598;52.364;9.772;2022-12-29T14:08:45;10.03;;;2.70;;
5157;SDS011;2598;52.364;9.772;2022-12-29T14:11:12;7.33;;;1.33;;
5157;SDS011;2598;52.364;9.772;2022-12-29T14:13:40;9.03;;;1.70;;
5157;SDS011;2598;52.364;9.772;2022-12-29T14:16:07;7.60;;;1.60;;
5157;SDS011;2598;52.364;9.772;2022-12-29T14:18:41;6.93;;;1.70;;
5157;SDS011;2598;52.364;9.772;2022-12-29T14:21:17;8.00;;;1.60;;
5157;SDS011;2598;52.364;9.772;2022-12-29T14:23:45;8.70;;;1.27;;
5157;SDS011;2598;52.364;9.772;2022-12-29T14:26:13;8.43;;;1.70;;
5157;SDS011;2598;52.364;9.772;2022-12-29T14:28:49;6.60;;;1.07;;
5157;SDS011;2598;52.364;9.772;2022-12-29T14:33:41;10.63;;;1.83;;
5157;SDS011;2598;52.364;9.772;2022-12-29T14:36:33;10.43;;;1.37;;
5157;SDS011;2598;52.364;9.772;2022-12-29T14:39:00;8.17;;;1.63;;
5157;SDS011;2598;52.364;9.772;2022-12-29T14:41:27;6.00;;;1.57;;
5157;SDS011;2598;52.364;9.772;2022-12-29T14:46:43;7.33;;;1.63;;
5157;SDS011;2598;52.364;9.772;2022-12-29T14:49:14;5.33;;;1.47;;
5157;SDS011;2598;52.364;9.772;2022-12-29T14:51:41;9.07;;;1.87;;
5157;SDS011;2598;52.364;9.772;2022-12-29T14:56:52;10.27;;;1.60;;
5157;SDS011;2598;52.364;9.772;2022-12-29T14:59:18;6.20;;;1.40;;
5157;SDS011;2598;52.364;9.772;2022-12-29T15:01:47;12.20;;;1.53;;
5157;SDS011;2598;52.364;9.772;2022-12-29T15:04:20;10.83;;;1.70;;
5157;SDS011;2598;52.364;9.772;2022-12-29T15:06:46;10.97;;;1.60;;
5157;SDS011;2598;52.364;9.772;2022-12-29T15:12:33;7.90;;;1.30;;
5157;SDS011;2598;52.364;9.772;2022-12-29T15:14:39;4.50;;;1.37;;
5157;SDS011;2598;52.364;9.772;2022-12-29T15:17:32;10.13;;;2.00;;
5157;SDS011;2598;52.364;9.772;2022-12-29T15:20:00;7.20;;;1.60;;
5157;SDS011;2598;52.364;9.772;2022-12-29T15:22:27;9.20;;;1.80;;
5157;SDS011;2598;52.364;9.772;2022-12-29T15:24:54;6.30;;;1.37;;
5157;SDS011;2598;52.364;9.772;2022-12-29T15:27:21;7.70;;;1.50;;
5157;SDS011;2598;52.364;9.772;2022-12-29T15:29:47;7.40;;;1.57;;
5157;SDS011;2598;52.364;9.772;2022-12-29T15:34:46;7.53;;;1.60;;
5157;SDS011;2598;52.364;9.772;2022-12-29T15:37:20;8.73;;;1.60;;
5157;SDS011;2598;52.364;9.772;2022-12-29T15:39:47;8.30;;;1.87;;
5157;SDS011;2598;52.364;9.772;2022-12-29T15:44:42;6.90;;;1.60;;
5157;SDS011;2598;52.364;9.772;2022-12-29T15:47:16;6.43;;;1.63;;
5157;SDS011;2598;52.364;9.772;2022-12-29T15:49:43;6.00;;;1.70;;
5157;SDS011;2598;52.364;9.772;2022-12-29T15:52:09;9.30;;;1.97;;
5157;SDS011;2598;52.364;9.772;2022-12-29T15:54:36;5.60;;;1.53;;
5157;SDS011;2598;52.364;9.772;2022-12-29T15:57:03;11.13;;;1.93;;
5157;SDS011;2598;52.364;9.772;2022-12-29T15:59:32;11.67;;;1.80;;
5157;SDS011;2598;52.364;9.772;2022-12-29T16:01:59;5.07;;;1.40;;
5157;SDS011;2598;52.364;9.772;2022-12-29T16:04:27;9.47;;;1.53;;
5157;SDS011;2598;52.364;9.772;2022-12-29T16:07:01;8.70;;;1.80;;
5157;SDS011;2598;52.364;9.772;2022-12-29T16:09:34;6.90;;;1.80;;
5157;SDS011;2598;52.364;9.772;2022-12-29T16:12:04;7.87;;;1.77;;
5157;SDS011;2598;52.364;9.772;2022-12-29T16:14:33;11.83;;;1.77;;
5157;SDS011;2598;52.364;9.772;2022-12-29T16:17:03;9.70;;;2.27;;
5157;SDS011;2598;52.364;9.772;2022-12-29T16:19:33;9.50;;;1.80;;
5157;SDS011;2598;52.364;9.772;2022-12-29T16:22:01;6.13;;;1.27;;
5157;SDS011;2598;52.364;9.772;2022-12-29T16:24:30;9.03;;;1.80;;
5157;SDS011;2598;52.364;9.772;2022-12-29T16:26:58;7.07;;;1.53;;
5157;SDS011;2598;52.364;9.772;2022-12-29T16:29:25;10.63;;;1.70;;
5157;SDS011;2598;52.364;9.772;2022-12-29T16:31:53;8.63;;;1.70;;
5157;SDS011;2598;52.364;9.772;2022-12-29T16:34:26;11.73;;;1.90;;
5157;SDS011;2598;52.364;9.772;2022-12-29T16:37:04;8.27;;;1.97;;
5157;SDS011;2598;52.364;9.772;2022-12-29T16:39:34;8.17;;;1.87;;
5157;SDS011;2598;52.364;9.772;2022-12-29T16:42:00;6.60;;;1.70;;
5157;SDS011;2598;52.364;9.772;2022-12-29T16:44:27;5.93;;;1.60;;
5157;SDS011;2598;52.364;9.772;2022-12-29T16:49:25;10.90;;;2.37;;
5157;SDS011;2598;52.364;9.772;2022-12-29T16:51:52;6.60;;;1.50;;
5157;SDS011;2598;52.364;9.772;2022-12-29T16:54:21;5.63;;;1.50;;
5157;SDS011;2598;52.364;9.772;2022-12-29T16:56:47;15.47;;;2.10;;
5157;SDS011;2598;52.364;9.772;2022-12-29T16:59:23;12.47;;;2.53;;
5157;SDS011;2598;52.364;9.772;2022-12-29T17:01:51;6.10;;;1.37;;
5157;SDS011;2598;52.364;9.772;2022-12-29T17:04:17;10.13;;;1.63;;
5157;SDS011;2598;52.364;9.772;2022-12-29T17:06:43;11.33;;;1.47;;
5157;SDS011;2598;52.364;9.772;2022-12-29T17:11:44;6.40;;;1.93;;
5157;SDS011;2598;52.364;9.772;2022-12-29T17:16:49;9.55;;;1.95;;
5157;SDS011;2598;52.364;9.772;2022-12-29T17:19:19;5.30;;;1.73;;
5157;SDS011;2598;52.364;9.772;2022-12-29T17:21:46;9.37;;;1.90;;
5157;SDS011;2598;52.364;9.772;2022-12-29T17:24:15;7.57;;;2.13;;
5157;SDS011;2598;52.364;9.772;2022-12-29T17:26:42;7.37;;;1.30;;
5157;SDS011;2598;52.364;9.772;2022-12-29T17:29:11;14.67;;;1.60;;
5157;SDS011;2598;52.364;9.772;2022-12-29T17:31:41;6.10;;;1.80;;
5157;SDS011;2598;52.364;9.772;2022-12-29T17:34:08;7.40;;;1.83;;
5157;SDS011;2598;52.364;9.772;2022-12-29T17:36:36;8.80;;;1.50;;
5157;SDS011;2598;52.364;9.772;2022-12-29T17:39:02;6.30;;;1.47;;
5157;SDS011;2598;52.364;9.772;2022-12-29T17:41:28;5.40;;;1.50;;
5157;SDS011;2598;52.364;9.772;2022-12-29T17:43:54;6.03;;;1.60;;
5157;SDS011;2598;52.364;9.772;2022-12-29T17:46:20;7.07;;;1.50;;
5157;SDS011;2598;52.364;9.772;2022-12-29T17:48:46;8.17;;;1.80;;
5157;SDS011;2598;52.364;9.772;2022-12-29T17:51:12;5.23;;;1.50;;
5157;SDS011;2598;52.364;9.772;2022-12-29T17:53:38;9.13;;;1.70;;
5157;SDS011;2598;52.364;9.772;2022-12-29T17:56:04;12.37;;;2.17;;
5157;SDS011;2598;52.364;9.772;2022-12-29T17:58:31;8.57;;;1.73;;
5157;SDS011;2598;52.364;9.772;2022-12-29T18:00:58;9.67;;;1.67;;
5157;SDS011;2598;52.364;9.772;2022-12-29T18:03:29;7.80;;;1.60;;
5157;SDS011;2598;52.364;9.772;2022-12-29T18:05:56;8.70;;;1.97;;
5157;SDS011;2598;52.364;9.772;2022-12-29T18:08:22;10.93;;;2.17;;
5157;SDS011;2598;52.364;9.772;2022-12-29T18:10:49;5.97;;;1.47;;
5157;SDS011;2598;52.364;9.772;2022-12-29T18:13:18;10.30;;;2.23;;
5157;SDS011;2598;52.364;9.772;2022-12-29T18:15:45;11.07;;;2.27;;
5157;SDS011;2598;52.364;9.772;2022-12-29T18:18:12;9.40;;;2.40;;
5157;SDS011;2598;52.364;9.772;2022-12-29T18:20:39;10.53;;;2.50;;
5157;SDS011;2598;52.364;9.772;2022-12-29T18:23:05;7.37;;;2.33;;
5157;SDS011;2598;52.364;9.772;2022-12-29T18:28:16;11.53;;;1.83;;
5157;SDS011;2598;52.364;9.772;2022-12-29T18:30:42;5.83;;;1.80;;
5157;SDS011;2598;52.364;9.772;2022-12-29T18:33:12;6.87;;;1.60;;
5157;SDS011;2598;52.364;9.772;2022-12-29T18:35:41;5.93;;;1.60;;
5157;SDS011;2598;52.364;9.772;2022-12-29T18:38:07;7.50;;;1.60;;
5157;SDS011;2598;52.364;9.772;2022-12-29T18:40:33;6.77;;;1.40;;
5157;SDS011;2598;52.364;9.772;2022-12-29T18:42:59;6.63;;;1.47;;
5157;SDS011;2598;52.364;9.772;2022-12-29T18:45:26;5.03;;;0.93;;
5157;SDS011;2598;52.364;9.772;2022-12-29T18:47:52;4.83;;;1.20;;
5157;SDS011;2598;52.364;9.772;2022-12-29T18:50:18;5.97;;;1.27;;
5157;SDS011;2598;52.364;9.772;2022-12-29T18:52:44;5.50;;;1.00;;
5157;SDS011;2598;52.364;9.772;2022-12-29T18:55:11;5.43;;;1.20;;
5157;SDS011;2598;52.364;9.772;2022-12-29T18:57:37;6.90;;;1.80;;
5157;SDS011;2598;52.364;9.772;2022-12-29T19:00:04;5.63;;;1.23;;
5157;SDS011;2598;52.364;9.772;2022-12-29T19:02:30;5.63;;;1.67;;
5157;SDS011;2598;52.364;9.772;2022-12-29T19:04:56;6.43;;;2.40;;
5157;SDS011;2598;52.364;9.772;2022-12-29T19:07:23;5.30;;;1.67;;
5157;SDS011;2598;52.364;9.772;2022-12-29T19:09:49;11.30;;;2.00;;
5157;SDS011;2598;52.364;9.772;2022-12-29T19:12:15;5.73;;;1.60;;
5157;SDS011;2598;52.364;9.772;2022-12-29T19:14:42;6.83;;;1.43;;
5157;SDS011;2598;52.364;9.772;2022-12-29T19:17:11;4.67;;;1.27;;
5157;SDS011;2598;52.364;9.772;2022-12-29T19:19:38;6.53;;;1.60;;
5157;SDS011;2598;52.364;9.772;2022-12-29T19:22:03;9.30;;;1.70;;
5157;SDS011;2598;52.364;9.772;2022-12-29T19:24:29;5.47;;;1.50;;
5157;SDS011;2598;52.364;9.772;2022-12-29T19:26:55;5.30;;;1.13;;
5157;SDS011;2598;52.364;9.772;2022-12-29T19:29:22;8.57;;;1.77;;
5157;SDS011;2598;52.364;9.772;2022-12-29T19:31:48;8.43;;;1.73;;
5157;SDS011;2598;52.364;9.772;2022-12-29T19:34:14;6.17;;;1.33;;
5157;SDS011;2598;52.364;9.772;2022-12-29T19:36:41;6.27;;;1.20;;
5157;SDS011;2598;52.364;9.772;2022-12-29T19:39:07;7.27;;;1.50;;
5157;SDS011;2598;52.364;9.772;2022-12-29T19:41:34;9.63;;;1.60;;
5157;SDS011;2598;52.364;9.772;2022-12-29T19:44:00;6.60;;;1.70;;
5157;SDS011;2598;52.364;9.772;2022-12-29T19:46:26;8.80;;;1.30;;
5157;SDS011;2598;52.364;9.772;2022-12-29T19:48:52;5.50;;;1.23;;
5157;SDS011;2598;52.364;9.772;2022-12-29T19:51:22;7.70;;;1.77;;
5157;SDS011;2598;52.364;9.772;2022-12-29T19:53:49;4.70;;;1.63;;
5157;SDS011;2598;52.364;9.772;2022-12-29T19:56:15;11.60;;;1.37;;
5157;SDS011;2598;52.364;9.772;2022-12-29T19:58:41;6.20;;;1.20;;
5157;SDS011;2598;52.364;9.772;2022-12-29T20:01:08;5.10;;;1.13;;
5157;SDS011;2598;52.364;9.772;2022-12-29T20:03:35;4.10;;;1.33;;
5157;SDS011;2598;52.364;9.772;2022-12-29T20:06:02;6.80;;;1.53;;
5157;SDS011;2598;52.364;9.772;2022-12-29T20:08:28;4.70;;;1.00;;
5157;SDS011;2598;52.364;9.772;2022-12-29T20:10:55;6.00;;;1.37;;
5157;SDS011;2598;52.364;9.772;2022-12-29T20:13:21;8.53;;;1.30;;
5157;SDS011;2598;52.364;9.772;2022-12-29T20:15:47;10.73;;;1.50;;
5157;SDS011;2598;52.364;9.772;2022-12-29T20:18:13;7.67;;;1.33;;
5157;SDS011;2598;52.364;9.772;2022-12-29T20:20:39;7.40;;;1.30;;
5157;SDS011;2598;52.364;9.772;2022-12-29T20:23:05;4.83;;;1.10;;
5157;SDS011;2598;52.364;9.772;2022-12-29T20:25:31;5.80;;;1.30;;
5157;SDS011;2598;52.364;9.772;2022-12-29T20:27:57;4.50;;;1.03;;
5157;SDS011;2598;52.364;9.772;2022-12-29T20:30:23;6.37;;;1.10;;
5157;SDS011;2598;52.364;9.772;2022-12-29T20:32:49;6.17;;;1.30;;
5157;SDS011;2598;52.364;9.772;2022-12-29T20:35:16;5.10;;;1.20;;
5157;SDS011;2598;52.364;9.772;2022-12-29T20:37:42;5.67;;;1.07;;
5157;SDS011;2598;52.364;9.772;2022-12-29T20:40:08;8.77;;;1.33;;
5157;SDS011;2598;52.364;9.772;2022-12-29T20:42:34;5.10;;;1.20;;
5157;SDS011;2598;52.364;9.772;2022-12-29T20:45:00;4.33;;;0.90;;
5157;SDS011;2598;52.364;9.772;2022-12-29T20:47:26;6.23;;;1.23;;
5157;SDS011;2598;52.364;9.772;2022-12-29T20:49:52;7.47;;;1.50;;
5157;SDS011;2598;52.364;9.772;2022-12-29T20:52:18;12.10;;;1.33;;
5157;SDS011;2598;52.364;9.772;2022-12-29T20:54:44;5.27;;;1.00;;
5157;SDS011;2598;52.364;9.772;2022-12-29T20:57:10;6.97;;;1.30;;
5157;SDS011;2598;52.364;9.772;2022-12-29T20:59:36;8.17;;;1.53;;
5157;SDS011;2598;52.364;9.772;2022-12-29T21:02:02;6.60;;;1.63;;
5157;SDS011;2598;52.364;9.772;2022-12-29T21:04:28;8.33;;;1.67;;
5157;SDS011;2598;52.364;9.772;2022-12-29T21:06:54;9.07;;;1.80;;
5157;SDS011;2598;52.364;9.772;2022-12-29T21:09:20;7.00;;;1.53;;
5157;SDS011;2598;52.364;9.772;2022-12-29T21:11:47;7.37;;;1.30;;
5157;SDS011;2598;52.364;9.772;2022-12-29T21:14:13;8.83;;;1.47;;
5157;SDS011;2598;52.364;9.772;2022-12-29T21:16:39;6.37;;;1.80;;
5157;SDS011;2598;52.364;9.772;2022-12-29T21:19:05;6.43;;;1.60;;
5157;SDS011;2598;52.364;9.772;2022-12-29T21:21:31;7.50;;;2.03;;
5157;SDS011;2598;52.364;9.772;2022-12-29T21:23:57;14.73;;;2.10;;
5157;SDS011;2598;52.364;9.772;2022-12-29T21:26:29;6.50;;;1.60;;
5157;SDS011;2598;52.364;9.772;2022-12-29T21:28:55;7.67;;;1.60;;
5157;SDS011;2598;52.364;9.772;2022-12-29T21:33:50;5.73;;;1.60;;
5157;SDS011;2598;52.364;9.772;2022-12-29T21:36:17;11.33;;;2.07;;
5157;SDS011;2598;52.364;9.772;2022-12-29T21:38:43;10.60;;;1.70;;
5157;SDS011;2598;52.364;9.772;2022-12-29T21:41:10;7.40;;;1.57;;
5157;SDS011;2598;52.364;9.772;2022-12-29T21:43:36;7.47;;;2.00;;
5157;SDS011;2598;52.364;9.772;2022-12-29T21:46:02;6.70;;;1.60;;
5157;SDS011;2598;52.364;9.772;2022-12-29T21:48:29;9.60;;;1.60;;
5157;SDS011;2598;52.364;9.772;2022-12-29T21:50:56;13.67;;;2.00;;
5157;SDS011;2598;52.364;9.772;2022-12-29T21:53:41;10.30;;;1.80;;
5157;SDS011;2598;52.364;9.772;2022-12-29T21:56:12;10.13;;;2.00;;
5157;SDS011;2598;52.364;9.772;2022-12-29T21:58:39;6.57;;;1.60;;
5157;SDS011;2598;52.364;9.772;2022-12-29T22:01:25;10.03;;;1.80;;
5157;SDS011;2598;52.364;9.772;2022-12-29T22:04:10;10.73;;;1.97;;
5157;SDS011;2598;52.364;9.772;2022-12-29T22:06:55;10.80;;;2.50;;
5157;SDS011;2598;52.364;9.772;2022-12-29T22:09:40;12.03;;;2.43;;
5157;SDS011;2598;52.364;9.772;2022-12-29T22:12:24;7.03;;;2.20;;
5157;SDS011;2598;52.364;9.772;2022-12-29T22:15:09;12.90;;;2.37;;
5157;SDS011;2598;52.364;9.772;2022-12-29T22:17:35;11.10;;;2.00;;
5157;SDS011;2598;52.364;9.772;2022-12-29T22:20:01;7.43;;;1.83;;
5157;SDS011;2598;52.364;9.772;2022-12-29T22:22:27;14.97;;;1.93;;
5157;SDS011;2598;52.364;9.772;2022-12-29T22:24:53;12.00;;;2.20;;
5157;SDS011;2598;52.364;9.772;2022-12-29T22:27:19;8.30;;;1.70;;
5157;SDS011;2598;52.364;9.772;2022-12-29T22:29:45;8.73;;;2.20;;
5157;SDS011;2598;52.364;9.772;2022-12-29T22:32:11;12.07;;;2.30;;
5157;SDS011;2598;52.364;9.772;2022-12-29T22:34:37;9.83;;;1.73;;
5157;SDS011;2598;52.364;9.772;2022-12-29T22:37:03;10.50;;;2.30;;
5157;SDS011;2598;52.364;9.772;2022-12-29T22:39:29;18.80;;;2.80;;
5157;SDS011;2598;52.364;9.772;2022-12-29T22:41:55;10.73;;;2.23;;
5157;SDS011;2598;52.364;9.772;2022-12-29T22:44:21;11.13;;;1.83;;
5157;SDS011;2598;52.364;9.772;2022-12-29T22:46:46;10.37;;;2.33;;
5157;SDS011;2598;52.364;9.772;2022-12-29T22:49:12;6.43;;;1.87;;
5157;SDS011;2598;52.364;9.772;2022-12-29T22:51:38;10.40;;;2.40;;
5157;SDS011;2598;52.364;9.772;2022-12-29T22:54:04;7.70;;;2.00;;
5157;SDS011;2598;52.364;9.772;2022-12-29T22:56:30;8.23;;;2.30;;
5157;SDS011;2598;52.364;9.772;2022-12-29T22:58:56;7.97;;;2.07;;
5157;SDS011;2598;52.364;9.772;2022-12-29T23:01:22;7.60;;;1.77;;
5157;SDS011;2598;52.364;9.772;2022-12-29T23:03:48;11.37;;;2.07;;
5157;SDS011;2598;52.364;9.772;2022-12-29T23:06:15;9.73;;;1.93;;
5157;SDS011;2598;52.364;9.772;2022-12-29T23:08:41;16.53;;;2.30;;
5157;SDS011;2598;52.364;9.772;2022-12-29T23:11:09;8.37;;;2.00;;
5157;SDS011;2598;52.364;9.772;2022-12-29T23:13:35;15.00;;;2.70;;
5157;SDS011;2598;52.364;9.772;2022-12-29T23:16:01;10.33;;;2.50;;
5157;SDS011;2598;52.364;9.772;2022-12-29T23:18:27;16.10;;;2.40;;
5157;SDS011;2598;52.364;9.772;2022-12-29T23:20:53;26.83;;;3.43;;
5157;SDS011;2598;52.364;9.772;2022-12-29T23:23:18;10.00;;;2.33;;
5157;SDS011;2598;52.364;9.772;2022-12-29T23:26:03;16.03;;;3.10;;
5157;SDS011;2598;52.364;9.772;2022-12-29T23:28:29;10.53;;;1.90;;
5157;SDS011;2598;52.364;9.772;2022-12-29T23:30:55;13.30;;;2.30;;
5157;SDS011;2598;52.364;9.772;2022-12-29T23:33:21;10.63;;;2.63;;
5157;SDS011;2598;52.364;9.772;2022-12-29T23:35:47;9.93;;;2.27;;
5157;SDS011;2598;52.364;9.772;2022-12-29T23:38:13;15.13;;;2.77;;
5157;SDS011;2598;52.364;9.772;2022-12-29T23:40:39;14.10;;;2.73;;
5157;SDS011;2598;52.364;9.772;2022-12-29T23:43:05;8.50;;;2.37;;
5157;SDS011;2598;52.364;9.772;2022-12-29T23:45:34;11.00;;;2.60;;
5157;SDS011;2598;52.364;9.772;2022-12-29T23:48:00;17.63;;;2.87;;
5157;SDS011;2598;52.364;9.772;2022-12-29T23:50:26;13.23;;;2.57;;
5157;SDS011;2598;52.364;9.772;2022-12-29T23:52:52;8.43;;;2.40;;
5157;SDS011;2598;52.364;9.772;2022-12-29T23:55:18;9.67;;;2.33;;
5157;SDS011;2598;52.364;9.772;2022-12-29T23:57:43;11.70;;;2.50;;
